createdAt,value
2018-12-02T00:00:37.019Z,97909.94
2018-12-02T00:03:10.161Z,97894.89
2018-12-02T00:05:40.364Z,97903.88
2018-12-02T00:08:10.179Z,97892.36
2018-12-02T00:10:40.087Z,97889.76
2018-12-02T00:13:10.017Z,97890.27
2018-12-02T00:15:41.240Z,97884.80
2018-12-02T00:18:13.200Z,97889.13
2018-12-02T00:20:43.209Z,97885.84
2018-12-02T00:23:13.068Z,97893.98
2018-12-02T00:25:43.656Z,97892.82
2018-12-02T00:28:13.479Z,97882.69
2018-12-02T00:30:43.607Z,97879.39
2018-12-02T00:33:13.360Z,97874.36
2018-12-02T00:35:43.625Z,97863.66
2018-12-02T00:38:14.205Z,97867.54
2018-12-02T00:40:44.002Z,97859.38
2018-12-02T00:43:13.803Z,97872.29
2018-12-02T00:45:44.095Z,97870.20
2018-12-02T00:48:15.376Z,97869.78
2018-12-02T00:50:45.221Z,97880.84
2018-12-02T00:53:16.165Z,97882.83
2018-12-02T00:55:45.988Z,97883.24
2018-12-02T00:58:15.886Z,97875.39
2018-12-02T01:00:46.512Z,97877.96
2018-12-02T01:03:16.462Z,97875.34
2018-12-02T01:05:47.390Z,97875.28
2018-12-02T01:08:17.969Z,97875.70
2018-12-02T01:10:48.043Z,97880.81
2018-12-02T01:13:18.163Z,97884.25
2018-12-02T01:15:48.715Z,97887.98
2018-12-02T01:18:18.772Z,97892.63
2018-12-02T01:20:48.603Z,97886.97
2018-12-02T01:23:18.642Z,97881.78
2018-12-02T01:25:48.769Z,97881.66
2018-12-02T01:28:18.971Z,97877.33
2018-12-02T01:30:49.450Z,97877.75
2018-12-02T01:33:21.519Z,97870.38
2018-12-02T01:35:52.419Z,97867.75
2018-12-02T01:38:22.562Z,97842.52
2018-12-02T01:40:52.540Z,97864.55
2018-12-02T01:43:22.336Z,97868.79
2018-12-02T01:45:52.205Z,97863.98
2018-12-02T01:48:22.129Z,97860.13
2018-12-02T01:50:51.999Z,97854.09
2018-12-02T01:53:21.832Z,97850.13
2018-12-02T01:55:51.644Z,97848.37
2018-12-02T01:58:21.390Z,97854.75
2018-12-02T02:00:51.174Z,97850.45
2018-12-02T02:03:20.989Z,97842.75
2018-12-02T02:05:51.061Z,97843.65
2018-12-02T02:08:20.932Z,97852.64
2018-12-02T02:10:50.756Z,97850.45
2018-12-02T02:13:20.565Z,97857.38
2018-12-02T02:15:50.429Z,97846.64
2018-12-02T02:18:20.434Z,97847.89
2018-12-02T02:20:50.289Z,97840.84
2018-12-02T02:23:21.425Z,97839.97
2018-12-02T02:25:51.212Z,97840.33
2018-12-02T02:28:21.092Z,97833.82
2018-12-02T02:30:51.100Z,97834.33
2018-12-02T02:33:20.846Z,97827.05
2018-12-02T02:35:51.584Z,97825.80
2018-12-02T02:38:22.021Z,97833.97
2018-12-02T02:40:52.776Z,97824.96
2018-12-02T02:43:23.170Z,97821.23
2018-12-02T02:45:53.026Z,97807.83
2018-12-02T02:48:23.280Z,97805.20
2018-12-02T02:50:53.972Z,97805.20
2018-12-02T02:53:24.421Z,97795.77
2018-12-02T02:55:55.603Z,97800.48
2018-12-02T02:58:25.454Z,97797.14
2018-12-02T03:00:56.055Z,97789.07
2018-12-02T03:03:26.651Z,97747.03
2018-12-02T03:05:56.336Z,97782.63
2018-12-02T03:08:26.754Z,97790.45
2018-12-02T03:10:58.135Z,97780.28
2018-12-02T03:13:28.991Z,97779.20
2018-12-02T03:15:59.117Z,97773.66
2018-12-02T03:18:29.155Z,97773.80
2018-12-02T03:20:58.998Z,97772.60
2018-12-02T03:23:28.855Z,97776.14
2018-12-02T03:25:58.646Z,97771.92
2018-12-02T03:28:28.511Z,97779.66
2018-12-02T03:30:58.395Z,97777.19
2018-12-02T03:33:28.202Z,97780.73
2018-12-02T03:35:58.053Z,97780.34
2018-12-02T03:38:28.784Z,97780.76
2018-12-02T03:40:58.627Z,97772.62
2018-12-02T03:43:28.706Z,97778.72
2018-12-02T03:45:58.559Z,97777.92
2018-12-02T03:48:28.426Z,97775.41
2018-12-02T03:50:58.263Z,97779.75
2018-12-02T03:53:28.201Z,97738.73
2018-12-02T03:55:58.203Z,97774.30
2018-12-02T03:58:28.005Z,97773.03
2018-12-02T04:00:57.878Z,97768.31
2018-12-02T04:03:27.947Z,97759.80
2018-12-02T04:05:57.760Z,97759.86
2018-12-02T04:08:27.586Z,97755.66
2018-12-02T04:10:57.978Z,97757.83
2018-12-02T04:13:28.109Z,97753.58
2018-12-02T04:15:58.416Z,97764.78
2018-12-02T04:18:28.525Z,97761.39
2018-12-02T04:20:58.340Z,97756.32
2018-12-02T04:23:28.559Z,97763.23
2018-12-02T04:25:59.220Z,97759.44
2018-12-02T04:28:29.038Z,97761.48
2018-12-02T04:30:59.228Z,97758.94
2018-12-02T04:33:29.881Z,97760.25
2018-12-02T04:36:00.325Z,97758.19
2018-12-02T04:38:30.468Z,97758.66
2018-12-02T04:41:00.467Z,97762.91
2018-12-02T04:43:31.371Z,97759.55
2018-12-02T04:46:01.582Z,97758.75
2018-12-02T04:48:31.622Z,97759.25
2018-12-02T04:51:01.422Z,97763.13
2018-12-02T04:53:31.703Z,97764.43
2018-12-02T04:56:01.429Z,97759.73
2018-12-02T04:58:31.182Z,97749.88
2018-12-02T05:01:00.905Z,97744.37
2018-12-02T05:03:31.338Z,97743.45
2018-12-02T05:06:02.085Z,97739.22
2018-12-02T05:08:32.521Z,97740.11
2018-12-02T05:11:02.358Z,97735.38
2018-12-02T05:13:32.972Z,97724.63
2018-12-02T05:16:02.972Z,97728.49
2018-12-02T05:18:33.076Z,97731.02
2018-12-02T05:21:03.756Z,97725.83
2018-12-02T05:23:35.284Z,97722.81
2018-12-02T05:26:05.687Z,97603.22
2018-12-02T05:28:36.306Z,97724.45
2018-12-02T05:31:07.376Z,97722.73
2018-12-02T05:33:38.128Z,97720.97
2018-12-02T05:36:08.470Z,97719.17
2018-12-02T05:38:39.089Z,97719.08
2018-12-02T05:41:08.803Z,97718.59
2018-12-02T05:43:38.609Z,97715.48
2018-12-02T05:46:09.341Z,97725.79
2018-12-02T05:48:39.507Z,97720.33
2018-12-02T05:51:09.780Z,97725.02
2018-12-02T05:53:40.380Z,97727.20
2018-12-02T05:56:10.450Z,97723.38
2018-12-02T05:58:40.464Z,97723.82
2018-12-02T06:01:10.328Z,97728.08
2018-12-02T06:03:40.780Z,97716.51
2018-12-02T06:06:10.612Z,97711.77
2018-12-02T06:08:40.493Z,97716.83
2018-12-02T06:11:10.361Z,97714.24
2018-12-02T06:13:40.167Z,97701.88
2018-12-02T06:16:11.080Z,97697.53
2018-12-02T06:18:41.609Z,97702.67
2018-12-02T06:21:11.556Z,97697.13
2018-12-02T06:23:41.455Z,97698.48
2018-12-02T06:26:11.286Z,97697.60
2018-12-02T06:28:41.162Z,97688.12
2018-12-02T06:31:11.327Z,97685.96
2018-12-02T06:33:42.184Z,97676.61
2018-12-02T06:36:12.363Z,97679.60
2018-12-02T06:38:43.505Z,97685.61
2018-12-02T06:41:14.235Z,97684.33
2018-12-02T06:43:44.089Z,97682.69
2018-12-02T06:46:14.539Z,97679.89
2018-12-02T06:48:45.488Z,97681.14
2018-12-02T06:51:15.410Z,97684.13
2018-12-02T06:53:45.300Z,97687.84
2018-12-02T06:56:19.228Z,97682.55
2018-12-02T06:58:53.868Z,97680.83
2018-12-02T07:01:34.396Z,97676.61
2018-12-02T07:04:22.757Z,97672.56
2018-12-02T07:06:52.871Z,97669.00
2018-12-02T07:09:22.845Z,97665.89
2018-12-02T07:11:52.600Z,97682.97
2018-12-02T07:14:22.515Z,97673.85
2018-12-02T07:16:52.636Z,97671.72
2018-12-02T07:19:24.906Z,97673.34
2018-12-02T07:21:59.262Z,97662.44
2018-12-02T07:24:29.229Z,97667.51
2018-12-02T07:26:59.731Z,97660.17
2018-12-02T07:29:29.830Z,97662.17
2018-12-02T07:31:59.693Z,97659.58
2018-12-02T07:34:30.368Z,97684.86
2018-12-02T07:37:02.262Z,97670.73
2018-12-02T07:39:41.073Z,97664.21
2018-12-02T07:42:10.941Z,97654.76
2018-12-02T07:44:41.290Z,97668.49
2018-12-02T07:47:12.088Z,97662.40
2018-12-02T07:49:42.195Z,97671.45
2018-12-02T07:52:12.665Z,97668.51
2018-12-02T07:54:43.169Z,97670.63
2018-12-02T07:57:14.040Z,97685.64
2018-12-02T07:59:43.968Z,97670.64
2018-12-02T08:02:14.037Z,97665.12
2018-12-02T08:04:43.891Z,97665.47
2018-12-02T08:07:14.794Z,97650.05
2018-12-02T08:09:44.701Z,97642.77
2018-12-02T08:12:14.692Z,97644.06
2018-12-02T08:14:44.612Z,97638.91
2018-12-02T08:17:14.716Z,97641.88
2018-12-02T08:19:45.393Z,97643.15
2018-12-02T08:22:15.384Z,97642.41
2018-12-02T08:24:45.341Z,97637.36
2018-12-02T08:27:15.189Z,97644.38
2018-12-02T08:29:45.116Z,97647.40
2018-12-02T08:32:15.326Z,97643.21
2018-12-02T08:34:46.180Z,97636.42
2018-12-02T08:37:16.672Z,97636.11
2018-12-02T08:39:47.195Z,97634.98
2018-12-02T08:42:17.362Z,97629.91
2018-12-02T08:44:47.317Z,97629.55
2018-12-02T08:47:17.474Z,97636.08
2018-12-02T08:49:47.353Z,97639.50
2018-12-02T08:52:17.242Z,97642.88
2018-12-02T08:54:47.997Z,97637.71
2018-12-02T08:57:19.186Z,97627.03
2018-12-02T08:59:49.101Z,97641.56
2018-12-02T09:02:19.012Z,97634.20
2018-12-02T09:04:48.928Z,97630.77
2018-12-02T09:07:19.144Z,97632.84
2018-12-02T09:09:49.058Z,97632.38
2018-12-02T09:12:18.884Z,97629.04
2018-12-02T09:14:48.832Z,97631.20
2018-12-02T09:17:18.785Z,97623.45
2018-12-02T09:19:48.572Z,97620.05
2018-12-02T09:22:19.068Z,97611.42
2018-12-02T09:24:49.716Z,97615.38
2018-12-02T09:27:19.940Z,97616.68
2018-12-02T09:29:50.566Z,97612.45
2018-12-02T09:32:20.392Z,97600.15
2018-12-02T09:34:50.212Z,97603.30
2018-12-02T09:37:20.148Z,97602.00
2018-12-02T09:39:50.376Z,97587.16
2018-12-02T09:42:20.388Z,97591.02
2018-12-02T09:44:50.262Z,97587.46
2018-12-02T09:47:20.546Z,97595.69
2018-12-02T09:49:51.628Z,97591.03
2018-12-02T09:52:21.706Z,97593.59
2018-12-02T09:54:51.595Z,97585.36
2018-12-02T09:57:21.532Z,97593.53
2018-12-02T09:59:51.378Z,97589.11
2018-12-02T10:02:21.660Z,97584.33
2018-12-02T10:04:51.619Z,97572.28
2018-12-02T10:07:21.489Z,97576.64
2018-12-02T10:09:51.367Z,97574.45
2018-12-02T10:12:21.320Z,97568.84
2018-12-02T10:14:52.497Z,97567.63
2018-12-02T10:17:23.264Z,97556.52
2018-12-02T10:19:53.425Z,97553.27
2018-12-02T10:22:23.280Z,97534.83
2018-12-02T10:24:53.279Z,97534.03
2018-12-02T10:27:23.230Z,97525.52
2018-12-02T10:29:53.292Z,97525.86
2018-12-02T10:32:23.128Z,97528.34
2018-12-02T10:34:53.628Z,97519.36
2018-12-02T10:37:23.496Z,97528.81
2018-12-02T10:39:53.377Z,97518.02
2018-12-02T10:42:23.240Z,97504.74
2018-12-02T10:44:53.152Z,97490.60
2018-12-02T10:47:23.581Z,97484.64
2018-12-02T10:49:53.408Z,97496.23
2018-12-02T10:52:23.232Z,97503.45
2018-12-02T10:54:54.694Z,97496.20
2018-12-02T10:57:24.674Z,97493.28
2018-12-02T10:59:55.006Z,97485.16
2018-12-02T11:02:25.284Z,97488.16
2018-12-02T11:04:55.839Z,97486.06
2018-12-02T11:07:25.755Z,97479.25
2018-12-02T11:09:57.496Z,97473.27
2018-12-02T11:12:27.766Z,97467.64
2018-12-02T11:14:57.781Z,97471.51
2018-12-02T11:17:27.806Z,97465.84
2018-12-02T11:19:57.954Z,97469.16
2018-12-02T11:22:28.098Z,97473.38
2018-12-02T11:24:58.331Z,97473.41
2018-12-02T11:27:28.153Z,97469.97
2018-12-02T11:29:58.481Z,97467.81
2018-12-02T11:32:28.513Z,97467.01
2018-12-02T11:34:59.121Z,97469.16
2018-12-02T11:37:29.308Z,97467.82
2018-12-02T11:39:59.809Z,97458.45
2018-12-02T11:42:30.045Z,97449.03
2018-12-02T11:45:00.608Z,97447.38
2018-12-02T11:47:30.616Z,97453.88
2018-12-02T11:50:00.512Z,97455.59
2018-12-02T11:52:30.601Z,97467.95
2018-12-02T11:55:00.524Z,97454.63
2018-12-02T11:57:30.725Z,97455.91
2018-12-02T12:00:01.109Z,97445.98
2018-12-02T12:02:31.242Z,97439.11
2018-12-02T12:05:01.349Z,97433.48
2018-12-02T12:07:31.557Z,97433.91
2018-12-02T12:10:01.433Z,97423.16
2018-12-02T12:12:31.284Z,97416.23
2018-12-02T12:15:01.242Z,97404.20
2018-12-02T12:17:31.157Z,97416.63
2018-12-02T12:20:01.104Z,97406.35
2018-12-02T12:22:31.882Z,97388.73
2018-12-02T12:25:01.707Z,97384.03
2018-12-02T12:27:31.840Z,97377.19
2018-12-02T12:30:02.004Z,97369.88
2018-12-02T12:32:31.812Z,97366.91
2018-12-02T12:35:02.134Z,97363.40
2018-12-02T12:37:32.086Z,97347.06
2018-12-02T12:40:01.904Z,97344.91
2018-12-02T12:42:31.782Z,97338.09
2018-12-02T12:45:01.629Z,97335.95
2018-12-02T12:47:32.036Z,97337.66
2018-12-02T12:50:01.948Z,97335.99
2018-12-02T12:52:31.894Z,97337.26
2018-12-02T12:55:01.890Z,97332.13
2018-12-02T12:57:31.751Z,97330.41
2018-12-02T13:00:02.058Z,97330.81
2018-12-02T13:02:32.508Z,97333.41
2018-12-02T13:05:02.635Z,97331.23
2018-12-02T13:07:32.569Z,97335.13
2018-12-02T13:10:02.599Z,97332.98
2018-12-02T13:12:32.968Z,97333.81
2018-12-02T13:15:02.961Z,97321.31
2018-12-02T13:17:33.001Z,97321.30
2018-12-02T13:20:02.849Z,97291.48
2018-12-02T13:22:33.126Z,97330.70
2018-12-02T13:25:03.032Z,97331.13
2018-12-02T13:27:33.351Z,97331.48
2018-12-02T13:30:03.401Z,97345.59
2018-12-02T13:32:33.118Z,97335.75
2018-12-02T13:35:03.760Z,97326.73
2018-12-02T13:37:33.910Z,97322.89
2018-12-02T13:40:03.875Z,97318.99
2018-12-02T13:42:34.845Z,97318.63
2018-12-02T13:45:04.812Z,97312.58
2018-12-02T13:47:34.972Z,97315.59
2018-12-02T13:50:05.946Z,97317.73
2018-12-02T13:52:35.750Z,97310.46
2018-12-02T13:55:07.153Z,97312.15
2018-12-02T13:57:37.626Z,97311.29
2018-12-02T14:00:12.746Z,97299.75
2018-12-02T14:02:43.692Z,97306.16
2018-12-02T14:05:13.645Z,97303.98
2018-12-02T14:07:43.714Z,97287.66
2018-12-02T14:10:14.515Z,97297.94
2018-12-02T14:12:49.268Z,97294.10
2018-12-02T14:15:43.976Z,97292.38
2018-12-02T14:18:45.561Z,97296.28
2018-12-02T14:21:16.488Z,97300.94
2018-12-02T14:23:47.485Z,97291.92
2018-12-02T14:26:19.208Z,97293.61
2018-12-02T14:29:09.181Z,97300.91
2018-12-02T14:31:41.012Z,97298.33
2018-12-02T14:34:10.796Z,97297.05
2018-12-02T14:36:40.780Z,97293.17
2018-12-02T14:39:12.153Z,97297.44
2018-12-02T14:41:42.513Z,97288.84
2018-12-02T14:44:12.702Z,97287.13
2018-12-02T14:46:42.721Z,97277.67
2018-12-02T14:49:13.589Z,97272.52
2018-12-02T14:51:43.601Z,97266.11
2018-12-02T14:54:14.500Z,97265.68
2018-12-02T14:56:45.401Z,97248.06
2018-12-02T14:59:15.561Z,97245.48
2018-12-02T15:01:45.472Z,97242.47
2018-12-02T15:04:15.414Z,97242.47
2018-12-02T15:06:45.937Z,97233.45
2018-12-02T15:09:16.885Z,97222.78
2018-12-02T15:11:47.111Z,97218.96
2018-12-02T15:14:17.369Z,97224.17
2018-12-02T15:16:47.324Z,97212.58
2018-12-02T15:19:17.587Z,97214.73
2018-12-02T15:21:47.672Z,97217.76
2018-12-02T15:24:17.727Z,97220.77
2018-12-02T15:26:47.811Z,97213.89
2018-12-02T15:29:17.850Z,97214.33
2018-12-02T15:31:47.954Z,97216.06
2018-12-02T15:34:18.489Z,97214.77
2018-12-02T15:36:48.814Z,97213.03
2018-12-02T15:39:19.628Z,97220.34
2018-12-02T15:41:49.821Z,97225.91
2018-12-02T15:44:19.915Z,97226.78
2018-12-02T15:46:50.547Z,97221.13
2018-12-02T15:49:20.562Z,97226.66
2018-12-02T15:51:50.724Z,97228.38
2018-12-02T15:54:21.244Z,97234.41
2018-12-02T15:56:51.783Z,97231.83
2018-12-02T15:59:21.781Z,97231.41
2018-12-02T16:01:51.937Z,97232.23
2018-12-02T16:04:22.175Z,97115.13
2018-12-02T16:06:52.564Z,97244.73
2018-12-02T16:09:22.649Z,97252.47
2018-12-02T16:11:52.712Z,97250.31
2018-12-02T16:14:22.630Z,97241.28
2018-12-02T16:16:53.052Z,97230.11
2018-12-02T16:19:24.352Z,97220.64
2018-12-02T16:21:54.250Z,97215.48
2018-12-02T16:24:24.751Z,97216.81
2018-12-02T16:26:55.194Z,97223.30
2018-12-02T16:29:25.260Z,97218.55
2018-12-02T16:31:55.373Z,97223.28
2018-12-02T16:34:27.359Z,97226.30
2018-12-02T16:36:57.560Z,97215.95
2018-12-02T16:39:27.863Z,97218.98
2018-12-02T16:41:57.870Z,97212.97
2018-12-02T16:44:27.888Z,97204.77
2018-12-02T16:46:58.235Z,97211.65
2018-12-02T16:49:28.288Z,97206.91
2018-12-02T16:51:59.017Z,97208.57
2018-12-02T16:54:29.100Z,97211.59
2018-12-02T16:56:59.423Z,97227.05
2018-12-02T16:59:31.648Z,97231.36
2018-12-02T17:02:05.264Z,97233.53
2018-12-02T17:04:33.052Z,97238.25
2018-12-02T17:07:04.279Z,97244.73
2018-12-02T17:09:34.760Z,97239.97
2018-12-02T17:12:04.860Z,97245.58
2018-12-02T17:14:38.660Z,97230.11
2018-12-02T17:17:05.210Z,97234.00
2018-12-02T17:19:36.078Z,97236.58
2018-12-02T17:22:06.394Z,97225.83
2018-12-02T17:24:36.734Z,97209.05
2018-12-02T17:27:06.912Z,97201.78
2018-12-02T17:29:41.441Z,97212.92
2018-12-02T17:32:11.750Z,97207.32
2018-12-02T17:34:41.840Z,97199.56
2018-12-02T17:37:12.365Z,97209.03
2018-12-02T17:39:48.768Z,97221.92
2018-12-02T17:42:18.931Z,97219.30
2018-12-02T17:44:49.462Z,97225.28
2018-12-02T17:47:19.660Z,97224.43
2018-12-02T17:49:49.869Z,97221.82
2018-12-02T17:52:20.028Z,97220.53
2018-12-02T17:54:50.495Z,97226.52
2018-12-02T17:57:20.863Z,97217.93
2018-12-02T17:59:51.050Z,97220.97
2018-12-02T18:02:21.755Z,97229.98
2018-12-02T18:04:52.686Z,97235.56
2018-12-02T18:07:22.771Z,97237.29
2018-12-02T18:09:53.094Z,97238.58
2018-12-02T18:12:23.350Z,97177.93
2018-12-02T18:14:53.549Z,97228.92
2018-12-02T18:17:24.099Z,97238.36
2018-12-02T18:19:54.337Z,97244.76
2018-12-02T18:22:24.721Z,97254.20
2018-12-02T18:24:54.987Z,97235.70
2018-12-02T18:27:25.612Z,97225.80
2018-12-02T18:29:55.717Z,97232.61
2018-12-02T18:32:26.278Z,97223.16
2018-12-02T18:34:56.757Z,97213.28
2018-12-02T18:37:26.954Z,97216.72
2018-12-02T18:39:57.321Z,97232.16
2018-12-02T18:42:27.701Z,97231.30
2018-12-02T18:44:58.341Z,97228.73
2018-12-02T18:47:28.519Z,97234.31
2018-12-02T18:49:58.998Z,97225.23
2018-12-02T18:52:29.752Z,97216.64
2018-12-02T18:54:59.995Z,97211.03
2018-12-02T18:57:30.220Z,97219.19
2018-12-02T19:00:00.557Z,97216.61
2018-12-02T19:02:30.809Z,97215.09
2018-12-02T19:05:01.958Z,97234.92
2018-12-02T19:07:32.400Z,97234.45
2018-12-02T19:10:02.577Z,97230.95
2018-12-02T19:12:32.922Z,97247.26
2018-12-02T19:15:03.192Z,97229.59
2018-12-02T19:17:33.324Z,97242.87
2018-12-02T19:20:03.481Z,97249.28
2018-12-02T19:22:33.594Z,97246.68
2018-12-02T19:25:03.768Z,97246.22
2018-12-02T19:27:33.988Z,97250.51
2018-12-02T19:30:04.225Z,97252.62
2018-12-02T19:32:34.686Z,97254.77
2018-12-02T19:35:05.744Z,97247.82
2018-12-02T19:37:36.559Z,97241.34
2018-12-02T19:40:16.994Z,97253.36
2018-12-02T19:42:47.217Z,97258.05
2018-12-02T19:45:19.604Z,97253.32
2018-12-02T19:47:49.901Z,97251.22
2018-12-02T19:50:20.845Z,97263.20
2018-12-02T19:52:51.281Z,97260.28
2018-12-02T19:55:21.748Z,97252.50
2018-12-02T19:57:51.942Z,97256.33
2018-12-02T20:00:31.568Z,97265.30
2018-12-02T20:03:01.669Z,97257.14
2018-12-02T20:05:31.877Z,97251.52
2018-12-02T20:08:03.552Z,97255.27
2018-12-02T20:10:34.852Z,97253.19
2018-12-02T20:13:07.805Z,97241.13
2018-12-02T20:15:42.108Z,97250.05
2018-12-02T20:18:12.402Z,97250.01
2018-12-02T20:20:49.047Z,97239.27
2018-12-02T20:23:29.505Z,97248.33
2018-12-02T20:26:01.193Z,97243.14
2018-12-02T20:28:33.897Z,97244.42
2018-12-02T20:31:07.564Z,97237.55
2018-12-02T20:33:38.349Z,97206.95
2018-12-02T20:36:09.404Z,97237.13
2018-12-02T20:38:40.228Z,97233.69
2018-12-02T20:41:10.347Z,97238.84
2018-12-02T20:43:41.156Z,97243.56
2018-12-02T20:46:11.454Z,97223.38
2018-12-02T20:48:42.054Z,97233.26
2018-12-02T20:51:13.064Z,97231.97
2018-12-02T20:53:43.617Z,97230.25
2018-12-02T20:56:13.924Z,97219.98
2018-12-02T20:58:44.537Z,97214.36
2018-12-02T21:01:14.886Z,97216.91
2018-12-02T21:03:47.007Z,97228.53
2018-12-02T21:06:19.816Z,97214.80
2018-12-02T21:08:50.052Z,97205.31
2018-12-02T21:11:20.306Z,97207.89
2018-12-02T21:13:50.630Z,97206.53
2018-12-02T21:16:21.025Z,97209.95
2018-12-02T21:18:51.317Z,97214.69
2018-12-02T21:21:21.941Z,97209.11
2018-12-02T21:23:52.225Z,97202.27
2018-12-02T21:26:22.409Z,97194.16
2018-12-02T21:28:52.785Z,97203.59
2018-12-02T21:31:22.985Z,97207.03
2018-12-02T21:33:53.151Z,97202.73
2018-12-02T21:36:23.637Z,97212.61
2018-12-02T21:38:53.777Z,97207.03
2018-12-02T21:41:23.925Z,97210.03
2018-12-02T21:43:54.225Z,97210.07
2018-12-02T21:46:24.168Z,97205.38
2018-12-02T21:48:53.964Z,96884.77
2018-12-02T21:51:23.965Z,97205.81
2018-12-02T21:53:53.786Z,97195.94
2018-12-02T21:56:23.749Z,97203.66
2018-12-02T21:58:53.583Z,97203.70
2018-12-02T22:01:23.643Z,97208.42
2018-12-02T22:03:54.208Z,97201.09
2018-12-02T22:06:25.820Z,97214.03
2018-12-02T22:08:56.211Z,97219.64
2018-12-02T22:11:26.335Z,97214.48
2018-12-02T22:13:56.870Z,97213.66
2018-12-02T22:16:26.858Z,97203.34
2018-12-02T22:18:56.702Z,97199.94
2018-12-02T22:21:26.938Z,97198.24
2018-12-02T22:24:01.239Z,97193.52
2018-12-02T22:26:27.652Z,97192.66
2018-12-02T22:28:57.434Z,97196.95
2018-12-02T22:31:27.677Z,97187.06
2018-12-02T22:33:57.471Z,97181.50
2018-12-02T22:36:27.210Z,97184.51
2018-12-02T22:38:57.008Z,97183.65
2018-12-02T22:41:27.066Z,97176.77
2018-12-02T22:43:57.732Z,97176.34
2018-12-02T22:46:27.551Z,97175.06
2018-12-02T22:48:57.316Z,97173.77
2018-12-02T22:51:28.076Z,97178.91
2018-12-02T22:53:57.869Z,97169.89
2018-12-02T22:56:27.652Z,97166.89
2018-12-02T22:58:58.148Z,97160.45
2018-12-02T23:01:33.164Z,97158.72
2018-12-02T23:04:03.505Z,97163.45
2018-12-02T23:06:33.312Z,97183.65
2018-12-02T23:09:04.107Z,97174.20
2018-12-02T23:11:33.817Z,97168.17
2018-12-02T23:14:04.701Z,97171.19
2018-12-02T23:16:34.449Z,97166.05
2018-12-02T23:19:05.028Z,97167.77
2018-12-02T23:21:34.636Z,97166.91
2018-12-02T23:24:04.925Z,97162.61
2018-12-02T23:26:34.837Z,97154.88
2018-12-02T23:29:08.480Z,97151.44
2018-12-02T23:31:34.352Z,97148.00
2018-12-02T23:34:04.361Z,97147.56
2018-12-02T23:36:34.768Z,97136.83
2018-12-02T23:39:04.794Z,97131.66
2018-12-02T23:41:34.771Z,97139.86
2018-12-02T23:44:04.919Z,97131.23
2018-12-02T23:46:34.653Z,97148.84
2018-12-02T23:49:04.724Z,97138.08
2018-12-02T23:51:34.524Z,97135.08
2018-12-02T23:54:04.385Z,97126.89
2018-12-02T23:56:34.804Z,97113.57
2018-12-02T23:59:04.711Z,97118.30
